Time;durP1;ratioP1;P1;durP2;ratioP2;P2;SDS_P1;SDS_P2;PMS_P1;PMS_P2;Temp;Humidity;BMP_temperature;BMP_pressure;BME280_temperature;BME280_humidity;BME280_pressure;Samples;Min_cycle;Max_cycle;Signal;HPM_P1;HPM_P2
2021/08/25 00:00:39;;;;;;;18.65;12.52;;;;;;;;;;5052894;28;20056;-60
2021/08/25 00:03:06;;;;;;;18.45;12.65;;;;;;;;;;5052563;28;20491;-59
2021/08/25 00:05:32;;;;;;;17.85;13.07;;;;;;;;;;5034594;28;20112;-63
2021/08/25 00:07:58;;;;;;;18.73;13.48;;;;;;;;;;5053242;28;20401;-60
2021/08/25 00:10:24;;;;;;;18.63;12.73;;;;;;;;;;5053162;28;20031;-62
2021/08/25 00:12:50;;;;;;;18.95;12.82;;;;;;;;;;5053379;28;20070;-61
2021/08/25 00:15:16;;;;;;;18.38;12.38;;;;;;;;;;5034361;28;20025;-58
2021/08/25 00:17:42;;;;;;;17.60;12.65;;;;;;;;;;5052822;28;20029;-60
2021/08/25 00:20:08;;;;;;;20.20;13.57;;;;;;;;;;5052836;28;20036;-59
2021/08/25 00:22:34;;;;;;;20.00;12.98;;;;;;;;;;5035015;28;20028;-58
2021/08/25 00:25:00;;;;;;;18.48;12.35;;;;;;;;;;5053452;28;20029;-61
2021/08/25 00:27:26;;;;;;;17.85;12.85;;;;;;;;;;5052316;28;20373;-62
2021/08/25 00:29:52;;;;;;;18.17;12.95;;;;;;;;;;5052747;28;20476;-60
2021/08/25 00:32:18;;;;;;;18.23;12.93;;;;;;;;;;5052630;28;20021;-59
2021/08/25 00:34:44;;;;;;;18.73;12.75;;;;;;;;;;5052401;28;20036;-61
2021/08/25 00:37:10;;;;;;;19.38;12.57;;;;;;;;;;5034555;28;20025;-60
2021/08/25 00:39:37;;;;;;;18.58;12.40;;;;;;;;;;5052786;28;20469;-59
2021/08/25 00:42:03;;;;;;;23.63;13.10;;;;;;;;;;5034257;28;20021;-61
2021/08/25 00:44:29;;;;;;;19.73;13.45;;;;;;;;;;5034132;28;20048;-62
2021/08/25 00:46:55;;;;;;;17.35;11.98;;;;;;;;;;5050975;28;20060;-56
2021/08/25 00:49:21;;;;;;;19.60;12.80;;;;;;;;;;5051797;28;20370;-59
2021/08/25 00:51:47;;;;;;;17.65;12.65;;;;;;;;;;5096531;23;20046;-61
2021/08/25 00:54:14;;;;;;;18.90;12.52;;;;;;;;;;5112782;28;20078;-61
2021/08/25 00:56:41;;;;;;;18.17;12.27;;;;;;;;;;5112547;28;20098;-61
2021/08/25 00:59:07;;;;;;;20.50;13.02;;;;;;;;;;5113210;28;20483;-61
2021/08/25 01:01:39;;;;;;;19.38;12.63;;;;;;;;;;5094569;28;20028;-61
2021/08/25 01:04:10;;;;;;;20.98;14.05;;;;;;;;;;5112810;28;20028;-61
2021/08/25 01:06:39;;;;;;;19.90;12.60;;;;;;;;;;5111210;28;20080;-62
2021/08/25 01:09:06;;;;;;;20.25;12.63;;;;;;;;;;5111691;28;20114;-61
2021/08/25 01:11:33;;;;;;;18.40;12.63;;;;;;;;;;5111388;28;20024;-61
2021/08/25 01:13:59;;;;;;;17.75;12.52;;;;;;;;;;5111719;28;20028;-61
2021/08/25 01:16:26;;;;;;;18.92;12.02;;;;;;;;;;5110972;28;20170;-61
2021/08/25 01:18:53;;;;;;;19.95;13.18;;;;;;;;;;5112010;28;20032;-61
2021/08/25 01:21:19;;;;;;;17.70;12.40;;;;;;;;;;5110490;28;20132;-60
2021/08/25 01:23:46;;;;;;;18.15;12.77;;;;;;;;;;5111894;28;20031;-60
2021/08/25 01:26:15;;;;;;;18.88;12.50;;;;;;;;;;5109869;28;20027;-61
2021/08/25 01:28:51;;;;;;;22.45;13.32;;;;;;;;;;5111812;28;20061;-61
2021/08/25 01:31:19;;;;;;;18.05;12.70;;;;;;;;;;5112330;28;20058;-61
2021/08/25 01:33:45;;;;;;;18.02;12.35;;;;;;;;;;5112201;28;20452;-59
2021/08/25 01:36:14;;;;;;;19.25;12.60;;;;;;;;;;5111771;28;20030;-62
2021/08/25 01:38:51;;;;;;;18.77;13.10;;;;;;;;;;5112159;28;20034;-61
2021/08/25 01:41:19;;;;;;;18.77;12.80;;;;;;;;;;5112058;28;20038;-61
2021/08/25 01:43:45;;;;;;;18.73;12.50;;;;;;;;;;5112580;28;20019;-61
2021/08/25 01:46:18;;;;;;;18.73;12.27;;;;;;;;;;5111512;28;20030;-60
2021/08/25 01:48:44;;;;;;;17.88;11.85;;;;;;;;;;5110795;28;20471;-61
2021/08/25 01:51:10;;;;;;;17.67;11.52;;;;;;;;;;5112053;28;20034;-61
2021/08/25 01:53:36;;;;;;;18.80;12.02;;;;;;;;;;5110621;28;20028;-61
2021/08/25 01:56:02;;;;;;;21.70;12.80;;;;;;;;;;5110350;28;20368;-61
2021/08/25 01:58:28;;;;;;;19.75;12.20;;;;;;;;;;5110516;28;20122;-61
2021/08/25 02:00:54;;;;;;;19.63;11.80;;;;;;;;;;5112025;28;20035;-61
2021/08/25 02:03:20;;;;;;;18.38;11.82;;;;;;;;;;5110314;28;20127;-61
2021/08/25 02:05:46;;;;;;;18.15;11.65;;;;;;;;;;5109464;28;20023;-61
2021/08/25 02:08:12;;;;;;;19.30;12.20;;;;;;;;;;5110288;28;20028;-61
2021/08/25 02:10:38;;;;;;;18.40;12.35;;;;;;;;;;5111930;28;20360;-62
2021/08/25 02:13:04;;;;;;;18.65;12.10;;;;;;;;;;5112180;28;20024;-62
2021/08/25 02:15:30;;;;;;;17.83;12.05;;;;;;;;;;5112291;28;20019;-61
2021/08/25 02:17:56;;;;;;;19.13;12.10;;;;;;;;;;5111180;28;20084;-61
2021/08/25 02:20:22;;;;;;;18.45;11.77;;;;;;;;;;5110833;28;20028;-62
2021/08/25 02:22:48;;;;;;;18.50;12.00;;;;;;;;;;5110798;28;20148;-61
2021/08/25 02:25:14;;;;;;;18.50;11.93;;;;;;;;;;5109911;28;20035;-60
2021/08/25 02:27:40;;;;;;;20.30;11.88;;;;;;;;;;5114308;28;20383;-61
2021/08/25 02:30:06;;;;;;;19.17;12.13;;;;;;;;;;5113792;28;20024;-61
2021/08/25 02:32:32;;;;;;;19.98;12.38;;;;;;;;;;5114588;28;20020;-62
2021/08/25 02:34:58;;;;;;;18.90;11.50;;;;;;;;;;5113845;28;20118;-62
2021/08/25 02:37:24;;;;;;;19.02;12.43;;;;;;;;;;5113240;28;20085;-62
2021/08/25 02:39:50;;;;;;;20.67;12.38;;;;;;;;;;5115887;28;20099;-62
2021/08/25 02:42:16;;;;;;;18.08;11.63;;;;;;;;;;5114195;28;20471;-62
2021/08/25 02:44:42;;;;;;;19.63;11.95;;;;;;;;;;5113952;28;20068;-63
2021/08/25 02:47:08;;;;;;;18.23;11.57;;;;;;;;;;5114419;28;20491;-61
2021/08/25 02:49:34;;;;;;;19.30;11.98;;;;;;;;;;5115241;28;20078;-62
2021/08/25 02:52:00;;;;;;;17.60;11.10;;;;;;;;;;5113683;28;20067;-62
2021/08/25 02:54:26;;;;;;;19.75;11.82;;;;;;;;;;5113700;28;20023;-62
2021/08/25 02:56:52;;;;;;;19.15;11.32;;;;;;;;;;5113323;28;20027;-61
2021/08/25 02:59:18;;;;;;;18.70;11.30;;;;;;;;;;5114882;28;20361;-60
2021/08/25 03:01:44;;;;;;;18.08;11.88;;;;;;;;;;5115025;28;20066;-61
2021/08/25 03:04:10;;;;;;;17.13;11.60;;;;;;;;;;5113832;28;20057;-62
2021/08/25 03:06:36;;;;;;;18.20;11.50;;;;;;;;;;5113848;28;20439;-62
2021/08/25 03:09:02;;;;;;;17.30;11.05;;;;;;;;;;5114831;28;20103;-62
2021/08/25 03:11:28;;;;;;;16.40;10.63;;;;;;;;;;5114709;28;20028;-62
2021/08/25 03:13:54;;;;;;;19.25;11.57;;;;;;;;;;5113351;28;20364;-61
2021/08/25 03:16:19;;;;;;;17.63;11.30;;;;;;;;;;5112750;28;20027;-62
2021/08/25 03:18:45;;;;;;;21.98;11.73;;;;;;;;;;5113399;28;20059;-61
2021/08/25 03:21:11;;;;;;;18.95;11.50;;;;;;;;;;5113094;28;20491;-62
2021/08/25 03:23:37;;;;;;;18.30;11.98;;;;;;;;;;5114404;28;20031;-62
2021/08/25 03:26:03;;;;;;;17.50;11.40;;;;;;;;;;5113810;28;20072;-62
2021/08/25 03:28:29;;;;;;;18.05;11.75;;;;;;;;;;5112889;28;20035;-61
2021/08/25 03:30:57;;;;;;;18.75;12.38;;;;;;;;;;5114165;28;20027;-62
2021/08/25 03:33:23;;;;;;;18.10;11.30;;;;;;;;;;5114081;28;20019;-62
2021/08/25 03:35:49;;;;;;;17.92;11.13;;;;;;;;;;5112408;28;20027;-61
2021/08/25 03:38:15;;;;;;;17.58;11.25;;;;;;;;;;5113453;28;20027;-62
2021/08/25 03:40:41;;;;;;;18.42;11.32;;;;;;;;;;5112559;28;20104;-62
2021/08/25 03:43:07;;;;;;;19.13;11.20;;;;;;;;;;5112607;28;20081;-61
2021/08/25 03:45:33;;;;;;;18.65;11.32;;;;;;;;;;5111951;28;20028;-61
2021/08/25 03:47:59;;;;;;;18.90;11.50;;;;;;;;;;5113298;28;20391;-60
2021/08/25 03:50:25;;;;;;;22.25;12.57;;;;;;;;;;5112339;28;20065;-62
2021/08/25 03:52:51;;;;;;;17.92;11.57;;;;;;;;;;5113781;28;20038;-61
2021/08/25 03:55:17;;;;;;;20.83;12.90;;;;;;;;;;5111883;28;20535;-61
2021/08/25 03:57:43;;;;;;;18.33;11.77;;;;;;;;;;5114272;28;20400;-61
2021/08/25 04:00:09;;;;;;;20.10;11.63;;;;;;;;;;5112717;28;20020;-61
2021/08/25 04:02:35;;;;;;;21.33;11.80;;;;;;;;;;5112977;28;20437;-62
2021/08/25 04:05:01;;;;;;;21.65;12.27;;;;;;;;;;5113975;28;20476;-61
2021/08/25 04:07:27;;;;;;;18.88;12.10;;;;;;;;;;5112765;28;20402;-62
2021/08/25 04:09:53;;;;;;;19.95;11.85;;;;;;;;;;5113234;28;20390;-62
2021/08/25 04:12:19;;;;;;;18.80;12.63;;;;;;;;;;5113847;28;20020;-62
2021/08/25 04:14:45;;;;;;;19.95;12.55;;;;;;;;;;5112578;28;20467;-61
2021/08/25 04:17:11;;;;;;;20.13;12.90;;;;;;;;;;5112049;28;20024;-61
2021/08/25 04:19:37;;;;;;;19.92;12.60;;;;;;;;;;5112714;28;20028;-61
2021/08/25 04:22:03;;;;;;;18.20;12.13;;;;;;;;;;5112452;28;20024;-62
2021/08/25 04:24:30;;;;;;;18.83;12.95;;;;;;;;;;5112233;28;20482;-62
2021/08/25 04:26:56;;;;;;;21.95;12.93;;;;;;;;;;5112421;28;20031;-61
2021/08/25 04:29:22;;;;;;;20.25;12.68;;;;;;;;;;5113011;28;20383;-61
2021/08/25 04:31:48;;;;;;;19.42;12.85;;;;;;;;;;5112910;28;20028;-61
2021/08/25 04:34:14;;;;;;;19.35;12.60;;;;;;;;;;5113215;28;20015;-61
2021/08/25 04:36:40;;;;;;;24.27;13.07;;;;;;;;;;5110950;28;20047;-61
2021/08/25 04:39:05;;;;;;;21.20;12.85;;;;;;;;;;5111920;28;20128;-61
2021/08/25 04:41:31;;;;;;;20.95;12.70;;;;;;;;;;5112813;28;20030;-59
2021/08/25 04:43:57;;;;;;;20.65;12.43;;;;;;;;;;5112819;28;20023;-61
2021/08/25 04:46:23;;;;;;;22.98;12.57;;;;;;;;;;5110839;28;20547;-62
2021/08/25 04:48:49;;;;;;;20.33;13.40;;;;;;;;;;5110973;28;20085;-61
2021/08/25 04:51:15;;;;;;;19.00;12.45;;;;;;;;;;5092484;28;20096;-61
2021/08/25 04:53:41;;;;;;;20.10;13.02;;;;;;;;;;5094770;28;20012;-61
2021/08/25 04:56:07;;;;;;;18.88;12.32;;;;;;;;;;5111934;28;20073;-61
2021/08/25 04:58:34;;;;;;;18.23;12.35;;;;;;;;;;5112825;28;20072;-60
2021/08/25 05:01:00;;;;;;;19.67;12.80;;;;;;;;;;5112592;28;20032;-61
2021/08/25 05:03:26;;;;;;;18.85;12.13;;;;;;;;;;5112764;28;20019;-61
2021/08/25 05:05:52;;;;;;;20.02;12.93;;;;;;;;;;5093760;28;20024;-61
2021/08/25 05:08:18;;;;;;;22.25;13.55;;;;;;;;;;5112533;28;20133;-62
2021/08/25 05:10:48;;;;;;;22.33;14.30;;;;;;;;;;5094274;28;20028;-58
2021/08/25 05:13:14;;;;;;;19.20;13.52;;;;;;;;;;5094650;28;20051;-62
2021/08/25 05:15:44;;;;;;;21.52;12.73;;;;;;;;;;5112312;28;20369;-62
2021/08/25 05:18:10;;;;;;;20.17;13.43;;;;;;;;;;5094054;28;20144;-62
2021/08/25 05:20:36;;;;;;;24.38;13.95;;;;;;;;;;5094422;28;20499;-60
2021/08/25 05:23:02;;;;;;;20.95;13.90;;;;;;;;;;5112347;28;20410;-62
2021/08/25 05:25:28;;;;;;;19.60;13.32;;;;;;;;;;5111903;28;20030;-60
2021/08/25 05:27:54;;;;;;;20.38;13.32;;;;;;;;;;5093723;28;20491;-61
2021/08/25 05:30:20;;;;;;;21.08;13.40;;;;;;;;;;5111829;28;20020;-62
2021/08/25 05:32:51;;;;;;;20.10;13.38;;;;;;;;;;5112267;28;20020;-62
2021/08/25 05:35:17;;;;;;;21.05;13.38;;;;;;;;;;5093093;28;20364;-63
2021/08/25 05:37:43;;;;;;;21.40;13.77;;;;;;;;;;5112151;28;20035;-63
2021/08/25 05:40:09;;;;;;;21.63;13.77;;;;;;;;;;5111969;28;20020;-62
2021/08/25 05:42:35;;;;;;;20.95;13.75;;;;;;;;;;5094070;28;20027;-62
2021/08/25 05:45:03;;;;;;;22.25;14.27;;;;;;;;;;5094376;28;20079;-62
2021/08/25 05:47:29;;;;;;;23.80;14.43;;;;;;;;;;5110951;28;20550;-61
2021/08/25 05:49:55;;;;;;;20.73;14.50;;;;;;;;;;5111789;28;20463;-61
2021/08/25 05:52:21;;;;;;;21.38;15.18;;;;;;;;;;5111412;28;20032;-61
2021/08/25 05:54:47;;;;;;;20.10;13.93;;;;;;;;;;5112452;28;20622;-62
2021/08/25 05:57:13;;;;;;;20.83;14.73;;;;;;;;;;5092871;28;20011;-62
2021/08/25 05:59:39;;;;;;;21.08;15.60;;;;;;;;;;5112520;28;20133;-62
2021/08/25 06:02:05;;;;;;;22.17;15.02;;;;;;;;;;5095417;28;20050;-62
2021/08/25 06:04:31;;;;;;;22.85;14.30;;;;;;;;;;5097740;28;20036;-61
2021/08/25 06:06:57;;;;;;;21.00;15.50;;;;;;;;;;5096620;28;20028;-61
2021/08/25 06:09:23;;;;;;;23.48;15.80;;;;;;;;;;5115583;28;20020;-62
2021/08/25 06:11:49;;;;;;;24.25;15.85;;;;;;;;;;5115397;28;20384;-60
2021/08/25 06:14:15;;;;;;;22.98;15.05;;;;;;;;;;5096902;28;20118;-62
2021/08/25 06:16:43;;;;;;;23.55;16.42;;;;;;;;;;5096679;28;20020;-61
2021/08/25 06:19:09;;;;;;;20.92;15.48;;;;;;;;;;5115332;28;20047;-62
2021/08/25 06:21:35;;;;;;;20.88;15.32;;;;;;;;;;5096709;28;20030;-60
2021/08/25 06:24:02;;;;;;;22.90;15.60;;;;;;;;;;5115013;28;20422;-63
2021/08/25 06:26:28;;;;;;;22.90;16.67;;;;;;;;;;5095975;28;20147;-62
2021/08/25 06:28:54;;;;;;;22.00;16.30;;;;;;;;;;5115189;28;20537;-62
2021/08/25 06:31:20;;;;;;;25.75;19.30;;;;;;;;;;5097174;28;20049;-60
2021/08/25 06:33:46;;;;;;;22.58;16.10;;;;;;;;;;5097369;28;20024;-61
2021/08/25 06:36:12;;;;;;;26.83;18.70;;;;;;;;;;5114348;28;20024;-61
2021/08/25 06:38:38;;;;;;;22.23;16.63;;;;;;;;;;5114913;28;20468;-61
2021/08/25 06:41:04;;;;;;;23.40;15.82;;;;;;;;;;5114292;28;20031;-61
2021/08/25 06:43:31;;;;;;;22.42;16.92;;;;;;;;;;5096816;28;20043;-61
2021/08/25 06:45:57;;;;;;;25.85;17.52;;;;;;;;;;5114555;28;20382;-61
2021/08/25 06:48:23;;;;;;;22.50;15.88;;;;;;;;;;5115319;28;20032;-60
2021/08/25 06:50:49;;;;;;;22.52;17.05;;;;;;;;;;5114498;28;20042;-60
2021/08/25 06:53:15;;;;;;;23.25;15.95;;;;;;;;;;5114246;22;20059;-58
2021/08/25 06:55:41;;;;;;;25.48;18.20;;;;;;;;;;5093309;28;20020;-59
2021/08/25 06:58:07;;;;;;;20.85;16.15;;;;;;;;;;5092252;28;20388;-65
2021/08/25 07:00:33;;;;;;;22.25;16.35;;;;;;;;;;5093817;28;20113;-62
2021/08/25 07:02:59;;;;;;;21.05;16.20;;;;;;;;;;5092581;28;20043;-61
2021/08/25 07:05:25;;;;;;;20.73;16.27;;;;;;;;;;5092097;28;20046;-59
2021/08/25 07:07:51;;;;;;;27.33;19.15;;;;;;;;;;5092433;28;20127;-61
2021/08/25 07:10:17;;;;;;;21.30;16.92;;;;;;;;;;5093677;28;20024;-61
2021/08/25 07:12:43;;;;;;;22.98;16.58;;;;;;;;;;5092566;28;20090;-61
2021/08/25 07:15:15;;;;;;;20.67;16.75;;;22.40;90.90;;;;;;5091938;28;20035;-61
2021/08/25 07:17:41;;;;;;;23.40;17.13;;;16.90;99.90;;;;;;5092678;28;20028;-59
2021/08/25 07:20:07;;;;;;;21.13;17.83;;;16.60;99.90;;;;;;5092554;28;20016;-61
2021/08/25 07:22:33;;;;;;;20.67;15.80;;;16.60;99.90;;;;;;5093525;28;20024;-61
2021/08/25 07:24:58;;;;;;;20.00;16.48;;;16.70;99.90;;;;;;5092208;28;20032;-61
2021/08/25 07:27:24;;;;;;;21.08;16.77;;;16.80;99.90;;;;;;5091651;28;20073;-61
2021/08/25 07:29:51;;;;;;;20.58;15.60;;;16.80;99.90;;;;;;5092703;28;20016;-62
2021/08/25 07:32:16;;;;;;;19.95;15.65;;;16.80;99.90;;;;;;5093377;28;20035;-61
2021/08/25 07:34:42;;;;;;;20.00;16.05;;;16.80;99.90;;;;;;5093461;28;20020;-61
2021/08/25 07:37:07;;;;;;;21.42;16.13;;;16.90;99.90;;;;;;5092636;28;20031;-61
2021/08/25 07:39:33;;;;;;;19.90;15.73;;;17.00;99.90;;;;;;5092193;28;20024;-61
2021/08/25 07:41:59;;;;;;;20.48;16.10;;;17.00;99.90;;;;;;5091928;28;20036;-62
2021/08/25 07:44:24;;;;;;;19.90;15.55;;;17.00;99.90;;;;;;5093250;28;20028;-61
2021/08/25 07:46:53;;;;;;;22.58;15.82;;;17.00;99.90;;;;;;5091268;28;20050;-63
2021/08/25 07:49:18;;;;;;;20.77;15.90;;;17.00;99.90;;;;;;5093113;28;20040;-61
2021/08/25 07:51:44;;;;;;;20.60;15.82;;;17.20;99.90;;;;;;5092676;28;20043;-61
2021/08/25 07:54:10;;;;;;;20.05;15.82;;;17.20;99.90;;;;;;5093078;28;20418;-61
2021/08/25 07:56:35;;;;;;;21.30;15.32;;;17.40;99.90;;;;;;5092736;28;20020;-60
2021/08/25 07:59:01;;;;;;;20.10;15.43;;;17.40;99.90;;;;;;5092998;28;20035;-61
2021/08/25 08:01:27;;;;;;;20.42;15.23;;;17.50;99.90;;;;;;5091458;28;20438;-62
2021/08/25 08:03:52;;;;;;;19.67;15.10;;;17.50;99.90;;;;;;5091651;28;20032;-61
2021/08/25 08:06:19;;;;;;;21.67;15.40;;;17.70;99.90;;;;;;5091992;28;20031;-66
2021/08/25 08:08:45;;;;;;;21.33;16.67;;;;;;;;;;5092942;28;20024;-64
2021/08/25 08:11:11;;;;;;;19.85;16.30;;;;;;;;;;5086725;28;20096;-64
2021/08/25 08:13:37;;;;;;;17.95;15.30;;;;;;;;;;5093710;28;20020;-62
2021/08/25 08:16:04;;;;;;;18.95;15.50;;;;;;;;;;5091074;28;20483;-66
2021/08/25 08:18:32;;;;;;;20.67;15.43;;;;;;;;;;5091683;28;20024;-64
2021/08/25 08:20:59;;;;;;;18.77;15.27;;;;;;;;;;5092890;28;20095;-64
2021/08/25 08:23:25;;;;;;;19.23;15.10;;;;;;;;;;5090793;28;20042;-64
2021/08/25 08:25:51;;;;;;;20.50;15.82;;;;;;;;;;5089931;28;20020;-64
2021/08/25 08:28:17;;;;;;;19.35;15.70;;;;;;;;;;5092077;28;20056;-65
2021/08/25 08:30:43;;;;;;;18.10;14.93;;;;;;;;;;5091326;28;20086;-64
2021/08/25 08:33:09;;;;;;;19.60;15.20;;;;;;;;;;5090833;28;20016;-64
2021/08/25 08:35:36;;;;;;;20.38;16.08;;;;;;;;;;5091352;28;20099;-64
2021/08/25 08:38:05;;;;;;;20.52;15.20;;;;;;;;;;5091347;28;20028;-64
2021/08/25 08:40:32;;;;;;;20.83;16.10;;;;;;;;;;5090628;28;20052;-65
2021/08/25 08:43:08;;;;;;;18.83;15.35;;;;;;;;;;5092092;28;20054;-65
2021/08/25 08:45:37;;;;;;;20.42;15.55;;;;;;;;;;5091235;28;20028;-65
2021/08/25 08:48:04;;;;;;;19.90;15.05;;;;;;;;;;5089330;28;20162;-65
2021/08/25 08:50:30;;;;;;;21.48;15.77;;;;;;;;;;5090851;28;20084;-64
2021/08/25 08:52:57;;;;;;;19.73;16.08;;;;;;;;;;5089795;28;20039;-64
2021/08/25 08:55:23;;;;;;;18.42;15.55;;;;;;;;;;5089677;28;20020;-64
2021/08/25 08:57:49;;;;;;;20.17;15.68;;;;;;;;;;5091940;28;20445;-64
2021/08/25 09:00:15;;;;;;;19.20;15.63;;;;;;;;;;5092447;28;20384;-63
2021/08/25 09:02:42;;;;;;;18.27;15.23;;;;;;;;;;5091134;28;20468;-64
2021/08/25 09:05:21;;;;;;;18.30;14.98;;;;;;;;;;5091568;28;20024;-65
2021/08/25 09:07:48;;;;;;;20.65;15.70;;;;;;;;;;5090133;28;20399;-64
2021/08/25 09:10:18;;;;;;;18.85;14.98;;;;;;;;;;5091787;28;20020;-65
2021/08/25 09:12:51;;;;;;;19.63;15.18;;;;;;;;;;5091071;28;20021;-65
2021/08/25 09:15:21;;;;;;;18.75;15.23;;;;;;;;;;5091395;28;20024;-65
2021/08/25 09:17:47;;;;;;;18.25;15.27;;;;;;;;;;5091747;28;20024;-64
2021/08/25 09:20:13;;;;;;;18.77;15.40;;;;;;;;;;5090508;28;20024;-63
2021/08/25 09:22:39;;;;;;;17.95;14.90;;;;;;;;;;5090436;28;20446;-65
2021/08/25 09:25:05;;;;;;;17.83;15.13;;;;;;;;;;5091730;28;20055;-66
2021/08/25 09:27:31;;;;;;;19.10;16.17;;;;;;;;;;5091536;28;20031;-64
2021/08/25 09:29:59;;;;;;;20.33;16.50;;;;;;;;;;5091901;28;20031;-63
2021/08/25 09:32:27;;;;;;;18.35;15.52;;;;;;;;;;5091644;28;20044;-64
2021/08/25 09:34:55;;;;;;;20.00;16.23;;;;;;;;;;5091691;28;20495;-64
2021/08/25 09:37:21;;;;;;;20.52;16.85;;;;;;;;;;5093917;28;20107;-64
2021/08/25 09:39:51;;;;;;;19.67;16.50;;;;;;;;;;5095877;28;20039;-64
2021/08/25 09:42:18;;;;;;;19.42;15.88;;;;;;;;;;5094562;28;20032;-64
2021/08/25 09:44:59;;;;;;;19.55;16.58;;;;;;;;;;5095891;28;20020;-64
2021/08/25 09:47:44;;;;;;;21.38;16.60;;;;;;;;;;5094181;28;20605;-64
2021/08/25 09:50:11;;;;;;;20.52;16.15;;;;;;;;;;5096012;28;20031;-63
2021/08/25 09:52:37;;;;;;;20.83;16.10;;;;;;;;;;5094772;28;20032;-62
2021/08/25 09:55:03;;;;;;;18.88;16.30;;;;;;;;;;5094904;28;20117;-64
2021/08/25 09:57:36;;;;;;;20.15;16.73;;;;;;;;;;5094922;28;20034;-64
2021/08/25 10:00:03;;;;;;;19.80;16.35;;;;;;;;;;5095304;28;20016;-64
2021/08/25 10:02:29;;;;;;;19.45;16.25;;;;;;;;;;5094187;28;20027;-64
2021/08/25 10:04:55;;;;;;;20.50;16.50;;;;;;;;;;5093978;28;20051;-64
2021/08/25 10:07:21;;;;;;;18.40;16.20;;;;;;;;;;5093075;28;20526;-61
2021/08/25 10:09:47;;;;;;;19.90;16.67;;;;;;;;;;5093907;28;20120;-63
2021/08/25 10:12:13;;;;;;;20.92;16.50;;;;;;;;;;5094704;28;20468;-58
2021/08/25 10:14:39;;;;;;;19.05;16.40;;;;;;;;;;5094831;28;20580;-60
2021/08/25 10:17:05;;;;;;;20.27;16.85;;;;;;;;;;5094357;28;20035;-59
2021/08/25 10:19:36;;;;;;;20.35;16.55;;;;;;;;;;5093696;28;20035;-60
2021/08/25 10:22:10;;;;;;;18.48;16.23;;;;;;;;;;5092504;28;20036;-60
2021/08/25 10:24:57;;;;;;;23.40;16.27;;;;;;;;;;5084210;28;20389;-57
2021/08/25 10:27:29;;;;;;;19.40;16.15;;;;;;;;;;5071494;28;20400;-59
2021/08/25 10:30:02;;;;;;;21.42;15.85;;;;;;;;;;5087055;28;20111;-57
2021/08/25 10:32:28;;;;;;;20.65;16.13;;;;;;;;;;5093087;28;20024;-59
2021/08/25 10:35:14;;;;;;;21.33;16.08;;;;;;;;;;5093395;28;20021;-60
2021/08/25 10:37:41;;;;;;;19.30;16.52;;;;;;;;;;5069456;28;20097;-60
2021/08/25 10:40:08;;;;;;;20.00;16.65;;;;;;;;;;5074439;28;20039;-61
2021/08/25 10:42:52;;;;;;;19.90;16.65;;;;;;;;;;5088579;28;20388;-59
2021/08/25 10:45:39;;;;;;;19.08;16.23;;;;;;;;;;5073300;28;20025;-60
2021/08/25 10:48:09;;;;;;;17.73;15.50;;;;;;;;;;5080618;28;20377;-61
2021/08/25 10:50:48;;;;;;;18.60;15.95;;;;;;;;;;5093823;28;20032;-60
2021/08/25 10:53:29;;;;;;;18.77;15.55;;;;;;;;;;5093232;28;20396;-60
2021/08/25 10:56:14;;;;;;;18.80;16.58;;;;;;;;;;5092112;28;20032;-60
2021/08/25 10:58:51;;;;;;;19.33;15.93;;;;;;;;;;5090921;28;20386;-60
2021/08/25 11:01:25;;;;;;;18.55;15.82;;;;;;;;;;5094221;28;20070;-59
2021/08/25 11:03:51;;;;;;;18.92;16.00;;;;;;;;;;5092863;28;20039;-60
2021/08/25 11:06:30;;;;;;;19.63;15.88;;;;;;;;;;5092777;28;20485;-60
2021/08/25 11:09:32;;;;;;;18.55;15.75;;;;;;;;;;5092288;28;20115;-59
2021/08/25 11:11:58;;;;;;;18.67;16.08;;;;;;;;;;5034385;28;20021;-59
2021/08/25 11:14:26;;;;;;;19.33;16.63;;;;;;;;;;4718687;28;10000240;-61
2021/08/25 11:16:52;;;;;;;18.70;16.07;;;;;;;;;;5069344;28;20056;-60
2021/08/25 11:19:22;;;;;;;18.85;15.70;;;;;;;;;;5069700;28;20170;-58
2021/08/25 11:21:49;;;;;;;19.20;16.10;;;;;;;;;;5069865;28;20028;-60
2021/08/25 11:24:16;;;;;;;18.58;15.77;;;;;;;;;;5070079;28;20410;-57
2021/08/25 11:26:42;;;;;;;19.08;16.60;;;;;;;;;;5068815;28;20082;-60
2021/08/25 11:29:21;;;;;;;19.20;16.50;;;;;;;;;;5069309;28;20420;-60
2021/08/25 11:31:47;;;;;;;19.23;16.55;;;;;;;;;;5068223;28;20024;-60
2021/08/25 11:34:14;;;;;;;19.85;17.25;;;;;;;;;;5069668;28;20707;-60
2021/08/25 11:36:57;;;;;;;19.55;16.60;;;;;;;;;;5068023;28;20147;-60
2021/08/25 11:39:23;;;;;;;19.38;17.17;;;;;;;;;;5067949;28;20028;-59
2021/08/25 11:41:50;;;;;;;19.15;17.00;;;;;;;;;;5068119;28;20492;-60
2021/08/25 11:44:33;;;;;;;18.92;16.92;;;;;;;;;;5069448;28;20496;-61
2021/08/25 11:47:12;;;;;;;19.80;17.70;;;;;;;;;;5067966;28;20396;-58
2021/08/25 11:49:39;;;;;;;19.70;17.38;;;;;;;;;;5070947;28;20024;-58
2021/08/25 11:52:05;;;;;;;20.05;17.95;;;;;;;;;;5077541;28;20020;-59
2021/08/25 11:54:31;;;;;;;19.50;17.35;;;;;;;;;;4735238;28;10000491;-57
2021/08/25 11:56:57;;;;;;;19.33;17.33;;;;;;;;;;5088865;28;20455;-57
2021/08/25 11:59:23;;;;;;;20.83;17.75;;;;;;;;;;5087451;28;20135;-59
2021/08/25 12:01:49;;;;;;;21.30;17.77;;;;;;;;;;5088221;28;20592;-56
2021/08/25 12:04:28;;;;;;;18.98;16.92;;;;;;;;;;5087702;28;20035;-59
2021/08/25 12:06:55;;;;;;;19.55;17.45;;;;;;;;;;5088122;28;20024;-59
2021/08/25 12:09:34;;;;;;;19.95;17.67;;;;;;;;;;5087462;28;20147;-58
2021/08/25 12:12:00;;;;;;;20.23;18.05;;;;;;;;;;5089007;28;20023;-58
2021/08/25 12:14:26;;;;;;;21.77;17.35;;;;;;;;;;5084903;28;20648;-58
2021/08/25 12:17:03;;;;;;;20.20;18.00;;;;;;;;;;5070531;28;20115;-58
2021/08/25 12:19:29;;;;;;;19.35;17.25;;;;;;;;;;5068940;28;20017;-52
2021/08/25 12:21:55;;;;;;;21.85;17.85;;;;;;;;;;5068799;28;20020;-58
2021/08/25 12:24:21;;;;;;;19.75;17.65;;;;;;;;;;5068879;28;20031;-57
2021/08/25 12:26:54;;;;;;;19.95;17.30;;;;;;;;;;5066926;28;20028;-58
2021/08/25 12:29:30;;;;;;;19.70;17.60;;;;;;;;;;5068258;28;20405;-58
2021/08/25 12:31:57;;;;;;;19.55;17.45;;;;;;;;;;5068451;28;20028;-57
2021/08/25 12:34:23;;;;;;;19.70;17.60;;;;;;;;;;5067325;28;20028;-54
2021/08/25 12:36:52;;;;;;;19.63;17.50;;;;;;;;;;5067707;28;20048;-58
2021/08/25 12:39:21;;;;;;;20.02;17.92;;;;;;;;;;5067745;28;20024;-58
2021/08/25 12:41:48;;;;;;;20.00;17.58;;;;;;;;;;5067897;28;20518;-56
2021/08/25 12:44:14;;;;;;;20.45;17.50;;;;;;;;;;5068377;28;20056;-58
2021/08/25 12:46:56;;;;;;;21.42;18.30;;;;;;;;;;5067682;28;20112;-57
2021/08/25 12:49:23;;;;;;;19.45;17.35;;;;;;;;;;5067942;28;20024;-57
2021/08/25 12:54:19;;;;;;;21.05;18.63;;;;;;;;;;5121392;22;20060;-63
2021/08/25 12:56:45;;;;;;;20.60;18.10;;;;;;;;;;5106931;28;20035;-63
2021/08/25 12:59:11;;;;;;;19.80;17.30;;;;;;;;;;5107680;28;20073;-64
2021/08/25 13:01:37;;;;;;;19.98;17.45;;;;;;;;;;5089442;28;20037;-63
2021/08/25 13:04:03;;;;;;;20.48;17.85;;;;;;;;;;5089414;28;20111;-64
2021/08/25 13:06:29;;;;;;;20.23;18.10;;;;;;;;;;5106799;28;20053;-66
2021/08/25 13:08:55;;;;;;;20.98;18.77;;;;;;;;;;5108080;28;20031;-64
2021/08/25 13:11:21;;;;;;;20.00;17.90;;;;;;;;;;5110644;28;20100;-63
2021/08/25 13:13:47;;;;;;;20.10;17.83;;;;;;;;;;5111100;28;20102;-65
2021/08/25 13:16:14;;;;;;;20.10;17.85;;;;;;;;;;5108738;28;20225;-64
2021/08/25 13:18:40;;;;;;;20.65;18.25;;;;;;;;;;5109497;28;20395;-63
2021/08/25 13:21:06;;;;;;;20.15;17.95;;;;;;;;;;5109392;28;20093;-63
2021/08/25 13:23:32;;;;;;;20.25;17.88;;;;;;;;;;5106638;28;20115;-64
2021/08/25 13:25:58;;;;;;;20.67;18.45;;;;;;;;;;5107165;28;20084;-64
2021/08/25 13:28:24;;;;;;;20.85;18.65;;;;;;;;;;5108388;28;20036;-63
2021/08/25 13:30:50;;;;;;;20.58;18.38;;;;;;;;;;5106872;28;20035;-64
2021/08/25 13:33:16;;;;;;;20.45;18.27;;;;;;;;;;5109201;28;20112;-65
2021/08/25 13:35:42;;;;;;;20.75;18.55;;;;;;;;;;5108542;28;20023;-64
2021/08/25 13:38:08;;;;;;;21.50;18.65;;;;;;;;;;5110592;28;20141;-63
2021/08/25 13:40:36;;;;;;;21.05;18.63;;;;;;;;;;5110510;28;20024;-64
2021/08/25 13:43:02;;;;;;;20.63;18.42;;;;;;;;;;5110640;28;20020;-63
2021/08/25 13:45:28;;;;;;;20.75;18.33;;;;;;;;;;5109916;28;20035;-64
2021/08/25 13:47:53;;;;;;;21.60;19.23;;;;;;;;;;5109217;28;20016;-64
2021/08/25 13:50:19;;;;;;;21.20;18.90;;;;;;;;;;5111018;28;20027;-63
2021/08/25 13:52:46;;;;;;;22.70;18.13;;;;;;;;;;5109055;28;20051;-63
2021/08/25 13:55:12;;;;;;;21.90;18.95;;;;;;;;;;5091278;28;20424;-63
2021/08/25 13:57:38;;;;;;;22.80;19.08;;;;;;;;;;5109354;28;20102;-63
2021/08/25 14:00:05;;;;;;;20.02;17.75;;;;;;;;;;5109844;28;20107;-63
2021/08/25 14:02:31;;;;;;;21.65;17.83;;;;;;;;;;5110178;28;20020;-63
2021/08/25 14:04:57;;;;;;;20.10;17.88;;;;;;;;;;5092284;28;20123;-63
2021/08/25 14:07:23;;;;;;;21.15;18.63;;;;;;;;;;5091180;28;20111;-63
2021/08/25 14:09:49;;;;;;;22.05;17.77;;;;;;;;;;5110331;28;20070;-63
2021/08/25 14:12:15;;;;;;;20.92;18.27;;;;;;;;;;5092617;28;20023;-63